sensor_id;sensor_type;location;lat;lon;timestamp;pressure;altitude;pressure_sealevel;temperature;humidity
3294;BME280;1659;51.470;6.770;2023-04-29T00:00:26;101124.28;;;11.73;100.00
3294;BME280;1659;51.470;6.770;2023-04-29T00:02:54;101126.97;;;11.71;100.00
3294;BME280;1659;51.470;6.770;2023-04-29T00:05:20;101135.81;;;11.68;100.00
3294;BME280;1659;51.470;6.770;2023-04-29T00:07:47;101133.25;;;11.64;100.00
3294;BME280;1659;51.470;6.770;2023-04-29T00:10:14;101143.94;;;11.58;100.00
3294;BME280;1659;51.470;6.770;2023-04-29T00:12:40;101148.44;;;11.52;100.00
3294;BME280;1659;51.470;6.770;2023-04-29T00:15:07;101150.25;;;11.50;100.00
3294;BME280;1659;51.470;6.770;2023-04-29T00:17:34;101149.44;;;11.45;100.00
3294;BME280;1659;51.470;6.770;2023-04-29T00:20:02;101150.44;;;11.38;100.00
3294;BME280;1659;51.470;6.770;2023-04-29T00:22:29;101155.78;;;11.33;100.00
3294;BME280;1659;51.470;6.770;2023-04-29T00:24:56;101149.69;;;11.30;100.00
3294;BME280;1659;51.470;6.770;2023-04-29T00:27:22;101147.06;;;11.28;100.00
3294;BME280;1659;51.470;6.770;2023-04-29T00:29:49;101157.66;;;11.27;100.00
3294;BME280;1659;51.470;6.770;2023-04-29T00:32:15;101167.41;;;11.25;100.00
3294;BME280;1659;51.470;6.770;2023-04-29T00:34:42;101164.78;;;11.22;100.00
3294;BME280;1659;51.470;6.770;2023-04-29T00:37:10;101170.13;;;11.20;100.00
3294;BME280;1659;51.470;6.770;2023-04-29T00:39:36;101175.44;;;11.19;100.00
3294;BME280;1659;51.470;6.770;2023-04-29T00:42:03;101172.81;;;11.15;100.00
3294;BME280;1659;51.470;6.770;2023-04-29T00:44:29;101176.34;;;11.14;100.00
3294;BME280;1659;51.470;6.770;2023-04-29T00:46:56;101177.28;;;11.12;100.00
3294;BME280;1659;51.470;6.770;2023-04-29T00:49:23;101178.19;;;11.09;100.00
3294;BME280;1659;51.470;6.770;2023-04-29T00:51:50;101183.56;;;11.06;100.00
3294;BME280;1659;51.470;6.770;2023-04-29T00:54:18;101179.19;;;11.01;100.00
3294;BME280;1659;51.470;6.770;2023-04-29T00:56:45;101188.91;;;11.00;100.00
3294;BME280;1659;51.470;6.770;2023-04-29T00:59:12;101194.22;;;10.97;100.00
3294;BME280;1659;51.470;6.770;2023-04-29T01:01:40;101193.38;;;10.95;100.00
3294;BME280;1659;51.470;6.770;2023-04-29T01:04:06;101191.66;;;10.92;100.00
3294;BME280;1659;51.470;6.770;2023-04-29T01:06:42;101203.16;;;10.88;100.00
3294;BME280;1659;51.470;6.770;2023-04-29T01:09:25;101199.66;;;10.86;100.00
3294;BME280;1659;51.470;6.770;2023-04-29T01:12:01;101194.41;;;10.85;100.00
3294;BME280;1659;51.470;6.770;2023-04-29T01:14:32;101207.63;;;10.83;100.00
3294;BME280;1659;51.470;6.770;2023-04-29T01:17:04;101207.69;;;10.80;99.96
3294;BME280;1659;51.470;6.770;2023-04-29T01:19:40;101202.44;;;10.79;100.00
3294;BME280;1659;51.470;6.770;2023-04-29T01:22:09;101208.59;;;10.77;99.87
3294;BME280;1659;51.470;6.770;2023-04-29T01:24:38;101206.88;;;10.76;99.92
3294;BME280;1659;51.470;6.770;2023-04-29T01:27:20;101212.16;;;10.76;99.94
3294;BME280;1659;51.470;6.770;2023-04-29T01:29:56;101207.75;;;10.75;99.90
3294;BME280;1659;51.470;6.770;2023-04-29T01:32:29;101207.75;;;10.75;100.00
3294;BME280;1659;51.470;6.770;2023-04-29T01:35:06;101208.63;;;10.74;100.00
3294;BME280;1659;51.470;6.770;2023-04-29T01:37:40;101223.63;;;10.72;99.91
3294;BME280;1659;51.470;6.770;2023-04-29T01:40:19;101217.50;;;10.70;100.00
3294;BME280;1659;51.470;6.770;2023-04-29T01:42:56;101224.56;;;10.68;100.00
3294;BME280;1659;51.470;6.770;2023-04-29T01:45:26;101223.72;;;10.66;100.00
3294;BME280;1659;51.470;6.770;2023-04-29T01:47:54;101228.16;;;10.63;100.00
3294;BME280;1659;51.470;6.770;2023-04-29T01:50:21;101229.06;;;10.62;100.00
3294;BME280;1659;51.470;6.770;2023-04-29T01:52:47;101230.81;;;10.61;100.00
3294;BME280;1659;51.470;6.770;2023-04-29T01:55:16;101237.91;;;10.59;100.00
3294;BME280;1659;51.470;6.770;2023-04-29T01:57:42;101232.63;;;10.57;100.00
3294;BME280;1659;51.470;6.770;2023-04-29T02:00:10;101237.09;;;10.54;100.00
3294;BME280;1659;51.470;6.770;2023-04-29T02:02:37;101238.88;;;10.52;100.00
3294;BME280;1659;51.470;6.770;2023-04-29T02:05:04;101233.59;;;10.49;100.00
3294;BME280;1659;51.470;6.770;2023-04-29T02:07:30;101237.13;;;10.48;100.00
3294;BME280;1659;51.470;6.770;2023-04-29T02:09:57;101246.84;;;10.47;100.00
3294;BME280;1659;51.470;6.770;2023-04-29T02:12:25;101243.31;;;10.47;100.00
3294;BME280;1659;51.470;6.770;2023-04-29T02:14:51;101245.97;;;10.45;100.00
3294;BME280;1659;51.470;6.770;2023-04-29T02:17:18;101248.63;;;10.47;100.00
3294;BME280;1659;51.470;6.770;2023-04-29T02:19:45;101252.13;;;10.46;100.00
3294;BME280;1659;51.470;6.770;2023-04-29T02:22:11;101258.28;;;10.46;100.00
3294;BME280;1659;51.470;6.770;2023-04-29T02:24:39;101260.06;;;10.46;100.00
3294;BME280;1659;51.470;6.770;2023-04-29T02:27:06;101266.22;;;10.46;100.00
3294;BME280;1659;51.470;6.770;2023-04-29T02:29:33;101267.09;;;10.47;100.00
3294;BME280;1659;51.470;6.770;2023-04-29T02:32:00;101266.19;;;10.48;100.00
3294;BME280;1659;51.470;6.770;2023-04-29T02:34:26;101270.63;;;10.47;100.00
3294;BME280;1659;51.470;6.770;2023-04-29T02:36:53;101264.41;;;10.48;100.00
3294;BME280;1659;51.470;6.770;2023-04-29T02:39:20;101262.69;;;10.46;100.00
3294;BME280;1659;51.470;6.770;2023-04-29T02:41:46;101270.63;;;10.46;100.00
3294;BME280;1659;51.470;6.770;2023-04-29T02:44:13;101269.78;;;10.44;100.00
3294;BME280;1659;51.470;6.770;2023-04-29T02:46:41;101278.56;;;10.43;100.00
3294;BME280;1659;51.470;6.770;2023-04-29T02:49:11;101278.56;;;10.43;100.00
3294;BME280;1659;51.470;6.770;2023-04-29T02:51:37;101285.63;;;10.42;100.00
3294;BME280;1659;51.470;6.770;2023-04-29T02:54:05;101284.78;;;10.38;100.00
3294;BME280;1659;51.470;6.770;2023-04-29T02:56:32;101292.72;;;10.37;100.00
3294;BME280;1659;51.470;6.770;2023-04-29T02:58:58;101292.75;;;10.35;100.00
3294;BME280;1659;51.470;6.770;2023-04-29T03:01:25;101292.75;;;10.32;99.99
3294;BME280;1659;51.470;6.770;2023-04-29T03:03:53;101296.28;;;10.30;99.95
3294;BME280;1659;51.470;6.770;2023-04-29T03:06:19;101298.94;;;10.28;99.92
3294;BME280;1659;51.470;6.770;2023-04-29T03:08:46;101296.31;;;10.27;99.91
3294;BME280;1659;51.470;6.770;2023-04-29T03:11:12;101301.59;;;10.25;99.99
3294;BME280;1659;51.470;6.770;2023-04-29T03:13:39;101303.38;;;10.25;99.76
3294;BME280;1659;51.470;6.770;2023-04-29T03:16:06;101304.25;;;10.22;99.85
3294;BME280;1659;51.470;6.770;2023-04-29T03:18:32;101301.66;;;10.20;99.82
3294;BME280;1659;51.470;6.770;2023-04-29T03:21:00;101306.06;;;10.18;99.88
3294;BME280;1659;51.470;6.770;2023-04-29T03:23:28;101311.34;;;10.18;99.82
3294;BME280;1659;51.470;6.770;2023-04-29T03:25:55;101313.97;;;10.18;99.92
3294;BME280;1659;51.470;6.770;2023-04-29T03:28:22;101309.59;;;10.19;99.86
3294;BME280;1659;51.470;6.770;2023-04-29T03:30:48;101317.53;;;10.19;99.54
3294;BME280;1659;51.470;6.770;2023-04-29T03:33:15;101319.31;;;10.15;99.62
3294;BME280;1659;51.470;6.770;2023-04-29T03:35:41;101321.97;;;10.14;99.65
3294;BME280;1659;51.470;6.770;2023-04-29T03:38:09;101321.97;;;10.14;99.65
3294;BME280;1659;51.470;6.770;2023-04-29T03:40:36;101318.47;;;10.12;99.82
3294;BME280;1659;51.470;6.770;2023-04-29T03:43:02;101320.19;;;10.13;99.65
3294;BME280;1659;51.470;6.770;2023-04-29T03:45:29;101326.38;;;10.12;99.64
3294;BME280;1659;51.470;6.770;2023-04-29T03:47:55;101320.22;;;10.10;99.49
3294;BME280;1659;51.470;6.770;2023-04-29T03:50:22;101332.56;;;10.08;99.57
3294;BME280;1659;51.470;6.770;2023-04-29T03:52:50;101333.47;;;10.08;99.58
3294;BME280;1659;51.470;6.770;2023-04-29T03:55:18;101325.53;;;10.08;99.54
3294;BME280;1659;51.470;6.770;2023-04-29T03:57:45;101326.41;;;10.09;99.61
3294;BME280;1659;51.470;6.770;2023-04-29T04:00:12;101329.06;;;10.07;99.45
3294;BME280;1659;51.470;6.770;2023-04-29T04:02:39;101332.56;;;10.08;99.45
3294;BME280;1659;51.470;6.770;2023-04-29T04:05:06;101329.91;;;10.08;99.51
3294;BME280;1659;51.470;6.770;2023-04-29T04:07:32;101344.91;;;10.07;99.50
3294;BME280;1659;51.470;6.770;2023-04-29T04:09:59;101338.75;;;10.08;99.49
3294;BME280;1659;51.470;6.770;2023-04-29T04:12:27;101343.13;;;10.08;99.66
3294;BME280;1659;51.470;6.770;2023-04-29T04:14:53;101347.53;;;10.09;99.42
3294;BME280;1659;51.470;6.770;2023-04-29T04:17:20;101351.94;;;10.07;99.29
3294;BME280;1659;51.470;6.770;2023-04-29T04:19:46;101359.88;;;10.07;99.42
3294;BME280;1659;51.470;6.770;2023-04-29T04:22:13;101356.34;;;10.06;99.59
3294;BME280;1659;51.470;6.770;2023-04-29T04:24:41;101346.66;;;10.07;99.60
3294;BME280;1659;51.470;6.770;2023-04-29T04:27:07;101356.34;;;10.06;99.52
3294;BME280;1659;51.470;6.770;2023-04-29T04:29:36;101362.50;;;10.07;99.43
3294;BME280;1659;51.470;6.770;2023-04-29T04:32:02;101360.72;;;10.09;99.41
3294;BME280;1659;51.470;6.770;2023-04-29T04:34:29;101366.88;;;10.09;99.37
3294;BME280;1659;51.470;6.770;2023-04-29T04:36:55;101370.38;;;10.10;99.55
3294;BME280;1659;51.470;6.770;2023-04-29T04:39:22;101366.88;;;10.11;99.48
3294;BME280;1659;51.470;6.770;2023-04-29T04:41:48;101376.56;;;10.12;99.36
3294;BME280;1659;51.470;6.770;2023-04-29T04:44:15;101373.03;;;10.11;99.38
3294;BME280;1659;51.470;6.770;2023-04-29T04:46:43;101378.28;;;10.13;99.28
3294;BME280;1659;51.470;6.770;2023-04-29T04:49:10;101380.94;;;10.14;99.26
3294;BME280;1659;51.470;6.770;2023-04-29T04:51:36;101384.44;;;10.18;99.22
3294;BME280;1659;51.470;6.770;2023-04-29T04:54:03;101384.44;;;10.18;99.32
3294;BME280;1659;51.470;6.770;2023-04-29T04:56:29;101391.47;;;10.20;99.14
3294;BME280;1659;51.470;6.770;2023-04-29T04:58:56;101390.56;;;10.20;99.10
3294;BME280;1659;51.470;6.770;2023-04-29T05:01:22;101394.97;;;10.19;98.97
3294;BME280;1659;51.470;6.770;2023-04-29T05:03:50;101403.75;;;10.21;99.15
3294;BME280;1659;51.470;6.770;2023-04-29T05:06:17;101399.34;;;10.22;98.92
3294;BME280;1659;51.470;6.770;2023-04-29T05:08:43;101402.91;;;10.21;98.89
3294;BME280;1659;51.470;6.770;2023-04-29T05:11:15;101400.25;;;10.23;98.81
3294;BME280;1659;51.470;6.770;2023-04-29T05:13:42;101402.88;;;10.24;98.81
3294;BME280;1659;51.470;6.770;2023-04-29T05:16:08;101413.44;;;10.24;98.92
3294;BME280;1659;51.470;6.770;2023-04-29T05:18:35;101414.31;;;10.26;98.81
3294;BME280;1659;51.470;6.770;2023-04-29T05:21:03;101425.75;;;10.27;98.81
3294;BME280;1659;51.470;6.770;2023-04-29T05:23:30;101418.69;;;10.27;98.87
3294;BME280;1659;51.470;6.770;2023-04-29T05:25:57;101421.31;;;10.29;98.65
3294;BME280;1659;51.470;6.770;2023-04-29T05:28:24;101428.41;;;10.31;98.89
3294;BME280;1659;51.470;6.770;2023-04-29T05:30:50;101425.75;;;10.31;98.66
3294;BME280;1659;51.470;6.770;2023-04-29T05:33:17;101439.81;;;10.33;98.68
3294;BME280;1659;51.470;6.770;2023-04-29T05:35:44;101438.03;;;10.35;98.62
3294;BME280;1659;51.470;6.770;2023-04-29T05:38:15;101442.44;;;10.36;98.71
3294;BME280;1659;51.470;6.770;2023-04-29T05:40:42;101447.75;;;10.36;98.55
3294;BME280;1659;51.470;6.770;2023-04-29T05:43:08;101452.13;;;10.37;98.49
3294;BME280;1659;51.470;6.770;2023-04-29T05:45:35;101453.03;;;10.36;98.51
3294;BME280;1659;51.470;6.770;2023-04-29T05:48:02;101451.25;;;10.37;98.43
3294;BME280;1659;51.470;6.770;2023-04-29T05:50:29;101453.88;;;10.37;98.77
3294;BME280;1659;51.470;6.770;2023-04-29T05:52:55;101462.69;;;10.39;98.46
3294;BME280;1659;51.470;6.770;2023-04-29T05:55:23;101459.16;;;10.38;98.40
3294;BME280;1659;51.470;6.770;2023-04-29T05:57:50;101464.44;;;10.40;98.47
3294;BME280;1659;51.470;6.770;2023-04-29T06:00:16;101464.44;;;10.40;98.37
3294;BME280;1659;51.470;6.770;2023-04-29T06:02:43;101476.75;;;10.41;98.44
3294;BME280;1659;51.470;6.770;2023-04-29T06:05:10;101472.38;;;10.40;98.38
3294;BME280;1659;51.470;6.770;2023-04-29T06:07:36;101481.16;;;10.42;98.16
3294;BME280;1659;51.470;6.770;2023-04-29T06:10:05;101482.03;;;10.43;98.29
3294;BME280;1659;51.470;6.770;2023-04-29T06:12:33;101485.56;;;10.43;98.14
3294;BME280;1659;51.470;6.770;2023-04-29T06:15:00;101490.81;;;10.45;98.17
3294;BME280;1659;51.470;6.770;2023-04-29T06:17:26;101492.59;;;10.46;98.07
3294;BME280;1659;51.470;6.770;2023-04-29T06:19:53;101499.59;;;10.48;98.11
3294;BME280;1659;51.470;6.770;2023-04-29T06:22:20;101499.59;;;10.48;98.04
3294;BME280;1659;51.470;6.770;2023-04-29T06:24:47;101504.88;;;10.50;97.88
3294;BME280;1659;51.470;6.770;2023-04-29T06:27:14;101509.28;;;10.51;97.75
3294;BME280;1659;51.470;6.770;2023-04-29T06:29:42;101511.06;;;10.52;97.81
3294;BME280;1659;51.470;6.770;2023-04-29T06:32:09;101518.94;;;10.55;97.52
3294;BME280;1659;51.470;6.770;2023-04-29T06:34:35;101524.22;;;10.56;97.40
3294;BME280;1659;51.470;6.770;2023-04-29T06:37:03;101521.56;;;10.56;97.39
3294;BME280;1659;51.470;6.770;2023-04-29T06:39:30;101517.16;;;10.57;97.44
3294;BME280;1659;51.470;6.770;2023-04-29T06:41:56;101526.00;;;10.56;97.29
3294;BME280;1659;51.470;6.770;2023-04-29T06:44:23;101524.22;;;10.55;97.25
3294;BME280;1659;51.470;6.770;2023-04-29T06:46:51;101531.28;;;10.56;97.16
3294;BME280;1659;51.470;6.770;2023-04-29T06:49:18;101532.16;;;10.56;97.37
3294;BME280;1659;51.470;6.770;2023-04-29T06:51:44;101529.50;;;10.60;97.33
3294;BME280;1659;51.470;6.770;2023-04-29T06:54:11;101534.78;;;10.61;97.35
3294;BME280;1659;51.470;6.770;2023-04-29T06:56:37;101538.28;;;10.63;97.24
3294;BME280;1659;51.470;6.770;2023-04-29T06:59:04;101541.78;;;10.65;97.00
3294;BME280;1659;51.470;6.770;2023-04-29T07:01:31;101546.19;;;10.68;97.03
3294;BME280;1659;51.470;6.770;2023-04-29T07:03:59;101543.50;;;10.72;97.02
3294;BME280;1659;51.470;6.770;2023-04-29T07:06:26;101552.28;;;10.77;97.10
3294;BME280;1659;51.470;6.770;2023-04-29T07:08:52;101556.63;;;10.85;96.80
3294;BME280;1659;51.470;6.770;2023-04-29T07:11:19;101549.53;;;10.90;96.62
3294;BME280;1659;51.470;6.770;2023-04-29T07:13:46;101558.31;;;10.93;96.40
3294;BME280;1659;51.470;6.770;2023-04-29T07:16:16;101556.53;;;10.97;96.62
3294;BME280;1659;51.470;6.770;2023-04-29T07:18:44;101562.66;;;11.01;96.36
3294;BME280;1659;51.470;6.770;2023-04-29T07:21:12;101560.88;;;11.04;96.40
3294;BME280;1659;51.470;6.770;2023-04-29T07:23:39;101575.88;;;11.05;96.05
3294;BME280;1659;51.470;6.770;2023-04-29T07:26:09;101577.63;;;11.08;96.14
3294;BME280;1659;51.470;6.770;2023-04-29T07:28:36;101583.78;;;11.08;96.05
3294;BME280;1659;51.470;6.770;2023-04-29T07:31:02;101582.91;;;11.08;96.21
3294;BME280;1659;51.470;6.770;2023-04-29T07:33:29;101591.75;;;11.07;95.98
3294;BME280;1659;51.470;6.770;2023-04-29T07:35:55;101601.47;;;11.03;96.09
3294;BME280;1659;51.470;6.770;2023-04-29T07:38:23;101601.47;;;11.00;96.09
3294;BME280;1659;51.470;6.770;2023-04-29T07:40:50;101603.25;;;10.98;95.95
3294;BME280;1659;51.470;6.770;2023-04-29T07:43:17;101604.13;;;10.95;95.98
3294;BME280;1659;51.470;6.770;2023-04-29T07:45:43;101607.69;;;10.94;95.99
3294;BME280;1659;51.470;6.770;2023-04-29T07:48:10;101614.75;;;10.94;96.03
3294;BME280;1659;51.470;6.770;2023-04-29T07:50:36;101605.91;;;10.93;95.85
3294;BME280;1659;51.470;6.770;2023-04-29T07:53:03;101613.84;;;10.96;95.67
3294;BME280;1659;51.470;6.770;2023-04-29T07:55:32;101620.91;;;10.98;95.46
3294;BME280;1659;51.470;6.770;2023-04-29T07:57:58;101611.19;;;10.98;95.52
3294;BME280;1659;51.470;6.770;2023-04-29T08:00:25;101622.63;;;10.99;95.31
3294;BME280;1659;51.470;6.770;2023-04-29T08:02:52;101629.66;;;11.04;95.19
3294;BME280;1659;51.470;6.770;2023-04-29T08:05:19;101622.59;;;11.08;95.32
3294;BME280;1659;51.470;6.770;2023-04-29T08:07:45;101627.81;;;11.15;95.20
3294;BME280;1659;51.470;6.770;2023-04-29T08:10:13;101634.81;;;11.23;95.22
3294;BME280;1659;51.470;6.770;2023-04-29T08:12:41;101638.31;;;11.29;94.71
3294;BME280;1659;51.470;6.770;2023-04-29T08:15:08;101629.44;;;11.32;94.57
3294;BME280;1659;51.470;6.770;2023-04-29T08:17:34;101638.28;;;11.31;94.59
3294;BME280;1659;51.470;6.770;2023-04-29T08:20:01;101639.19;;;11.28;94.65
3294;BME280;1659;51.470;6.770;2023-04-29T08:22:27;101643.59;;;11.31;94.53
3294;BME280;1659;51.470;6.770;2023-04-29T08:24:54;101652.41;;;11.30;94.34
3294;BME280;1659;51.470;6.770;2023-04-29T08:27:21;101651.56;;;11.26;94.12
3294;BME280;1659;51.470;6.770;2023-04-29T08:29:49;101646.25;;;11.25;93.96
3294;BME280;1659;51.470;6.770;2023-04-29T08:32:16;101657.75;;;11.22;93.98
3294;BME280;1659;51.470;6.770;2023-04-29T08:34:43;101655.13;;;11.19;93.69
3294;BME280;1659;51.470;6.770;2023-04-29T08:37:10;101656.91;;;11.17;93.90
3294;BME280;1659;51.470;6.770;2023-04-29T08:39:36;101663.94;;;11.21;93.65
3294;BME280;1659;51.470;6.770;2023-04-29T08:42:07;101661.25;;;11.26;93.81
3294;BME280;1659;51.470;6.770;2023-04-29T08:44:34;101658.53;;;11.33;93.67
3294;BME280;1659;51.470;6.770;2023-04-29T08:47:02;101668.19;;;11.39;93.44
3294;BME280;1659;51.470;6.770;2023-04-29T08:49:29;101669.03;;;11.44;93.41
3294;BME280;1659;51.470;6.770;2023-04-29T08:51:56;101669.94;;;11.46;92.93
3294;BME280;1659;51.470;6.770;2023-04-29T08:54:23;101676.97;;;11.47;93.21
3294;BME280;1659;51.470;6.770;2023-04-29T08:56:51;101671.69;;;11.44;93.16
3294;BME280;1659;51.470;6.770;2023-04-29T08:59:18;101678.75;;;11.47;92.83
3294;BME280;1659;51.470;6.770;2023-04-29T09:01:47;101686.66;;;11.50;93.19
3294;BME280;1659;51.470;6.770;2023-04-29T09:04:28;101684.88;;;11.52;92.94
3294;BME280;1659;51.470;6.770;2023-04-29T09:06:56;101687.53;;;11.53;92.75
3294;BME280;1659;51.470;6.770;2023-04-29T09:09:24;101683.09;;;11.56;92.59
3294;BME280;1659;51.470;6.770;2023-04-29T09:11:51;101691.03;;;11.57;92.68
3294;BME280;1659;51.470;6.770;2023-04-29T09:14:19;101696.25;;;11.62;92.74
3294;BME280;1659;51.470;6.770;2023-04-29T09:16:48;101696.31;;;11.60;92.44
3294;BME280;1659;51.470;6.770;2023-04-29T09:19:29;101696.31;;;11.59;92.28
3294;BME280;1659;51.470;6.770;2023-04-29T09:21:57;101689.22;;;11.64;92.45
3294;BME280;1659;51.470;6.770;2023-04-29T09:24:24;101697.06;;;11.71;92.29
3294;BME280;1659;51.470;6.770;2023-04-29T09:26:51;101701.41;;;11.79;92.05
3294;BME280;1659;51.470;6.770;2023-04-29T09:29:18;101704.91;;;11.84;91.78
3294;BME280;1659;51.470;6.770;2023-04-29T09:31:45;101711.97;;;11.86;91.83
3294;BME280;1659;51.470;6.770;2023-04-29T09:34:13;101704.88;;;11.88;91.61
3294;BME280;1659;51.470;6.770;2023-04-29T09:36:43;101709.25;;;11.96;91.82
3294;BME280;1659;51.470;6.770;2023-04-29T09:39:12;101712.75;;;12.01;91.33
3294;BME280;1659;51.470;6.770;2023-04-29T09:41:41;101717.97;;;12.08;91.48
3294;BME280;1659;51.470;6.770;2023-04-29T09:44:09;101715.25;;;12.15;91.13
3294;BME280;1659;51.470;6.770;2023-04-29T09:46:36;101707.19;;;12.24;91.10
3294;BME280;1659;51.470;6.770;2023-04-29T09:49:03;101716.72;;;12.40;91.26
3294;BME280;1659;51.470;6.770;2023-04-29T09:51:30;101714.78;;;12.56;90.52
3294;BME280;1659;51.470;6.770;2023-04-29T09:54:04;101716.44;;;12.65;90.47
3294;BME280;1659;51.470;6.770;2023-04-29T09:56:48;101717.25;;;12.72;90.37
3294;BME280;1659;51.470;6.770;2023-04-29T09:59:15;101711.03;;;12.76;90.20
3294;BME280;1659;51.470;6.770;2023-04-29T10:01:42;101715.38;;;12.81;90.12
3294;BME280;1659;51.470;6.770;2023-04-29T10:04:09;101726.81;;;12.85;90.21
3294;BME280;1659;51.470;6.770;2023-04-29T10:06:37;101722.31;;;12.92;89.98
3294;BME280;1659;51.470;6.770;2023-04-29T10:09:07;101733.72;;;12.98;90.04
3294;BME280;1659;51.470;6.770;2023-04-29T10:11:36;101729.19;;;13.05;89.85
3294;BME280;1659;51.470;6.770;2023-04-29T10:14:04;101732.69;;;13.09;89.33
3294;BME280;1659;51.470;6.770;2023-04-29T10:16:33;101736.22;;;13.12;89.15
3294;BME280;1659;51.470;6.770;2023-04-29T10:19:10;101737.06;;;13.14;89.12
3294;BME280;1659;51.470;6.770;2023-04-29T10:21:38;101737.03;;;13.16;89.00
3294;BME280;1659;51.470;6.770;2023-04-29T10:24:06;101736.09;;;13.20;88.89
3294;BME280;1659;51.470;6.770;2023-04-29T10:26:37;101734.25;;;13.23;88.62
3294;BME280;1659;51.470;6.770;2023-04-29T10:29:04;101743.03;;;13.29;88.41
3294;BME280;1659;51.470;6.770;2023-04-29T10:31:35;101739.38;;;13.39;88.44
3294;BME280;1659;51.470;6.770;2023-04-29T10:34:03;101739.22;;;13.50;87.91
3294;BME280;1659;51.470;6.770;2023-04-29T10:36:30;101737.25;;;13.63;87.80
3294;BME280;1659;51.470;6.770;2023-04-29T10:39:01;101743.09;;;13.83;87.87
3294;BME280;1659;51.470;6.770;2023-04-29T10:41:34;101739.31;;;13.98;87.58
3294;BME280;1659;51.470;6.770;2023-04-29T10:44:03;101744.44;;;14.10;87.06
3294;BME280;1659;51.470;6.770;2023-04-29T10:46:30;101742.44;;;14.22;86.71
3294;BME280;1659;51.470;6.770;2023-04-29T10:48:59;101746.69;;;14.32;86.61
3294;BME280;1659;51.470;6.770;2023-04-29T10:51:28;101741.03;;;14.50;86.56
3294;BME280;1659;51.470;6.770;2023-04-29T10:54:05;101744.34;;;14.63;85.91
3294;BME280;1659;51.470;6.770;2023-04-29T10:56:38;101748.56;;;14.75;85.87
3294;BME280;1659;51.470;6.770;2023-04-29T10:59:05;101752.81;;;14.84;85.47
3294;BME280;1659;51.470;6.770;2023-04-29T11:01:48;101748.09;;;14.97;85.31
3294;BME280;1659;51.470;6.770;2023-04-29T11:04:17;101757.66;;;15.05;84.96
3294;BME280;1659;51.470;6.770;2023-04-29T11:06:46;101752.16;;;15.13;84.78
3294;BME280;1659;51.470;6.770;2023-04-29T11:09:17;101749.59;;;15.10;84.45
3294;BME280;1659;51.470;6.770;2023-04-29T11:11:57;101758.44;;;15.10;84.60
3294;BME280;1659;51.470;6.770;2023-04-29T11:14:26;101753.91;;;15.16;84.57
3294;BME280;1659;51.470;6.770;2023-04-29T11:16:55;101758.97;;;15.26;84.37
3294;BME280;1659;51.470;6.770;2023-04-29T11:19:24;101754.97;;;15.46;84.41
3294;BME280;1659;51.470;6.770;2023-04-29T11:22:13;101757.25;;;15.63;83.62
3294;BME280;1659;51.470;6.770;2023-04-29T11:24:50;101752.41;;;15.80;82.82
3294;BME280;1659;51.470;6.770;2023-04-29T11:27:20;101751.34;;;15.88;82.67
3294;BME280;1659;51.470;6.770;2023-04-29T11:29:50;101749.16;;;16.03;82.09
3294;BME280;1659;51.470;6.770;2023-04-29T11:32:20;101754.84;;;16.24;81.69
3294;BME280;1659;51.470;6.770;2023-04-29T11:34:47;101747.69;;;16.59;81.08
3294;BME280;1659;51.470;6.770;2023-04-29T11:37:21;101751.16;;;16.94;80.49
3294;BME280;1659;51.470;6.770;2023-04-29T11:39:48;101747.56;;;17.25;79.66
3294;BME280;1659;51.470;6.770;2023-04-29T11:42:21;101750.78;;;17.63;79.21
3294;BME280;1659;51.470;6.770;2023-04-29T11:44:50;101754.31;;;17.93;78.07
3294;BME280;1659;51.470;6.770;2023-04-29T11:47:17;101751.72;;;17.90;77.80
3294;BME280;1659;51.470;6.770;2023-04-29T11:49:43;101757.78;;;17.95;78.28
3294;BME280;1659;51.470;6.770;2023-04-29T11:52:10;101746.84;;;18.53;77.83
3294;BME280;1659;51.470;6.770;2023-04-29T11:54:37;101752.44;;;19.41;76.52
3294;BME280;1659;51.470;6.770;2023-04-29T11:57:03;101747.94;;;19.86;75.12
3294;BME280;1659;51.470;6.770;2023-04-29T11:59:31;101753.31;;;19.86;74.93
3294;BME280;1659;51.470;6.770;2023-04-29T12:01:58;101740.25;;;20.19;74.78
3294;BME280;1659;51.470;6.770;2023-04-29T12:04:25;101730.13;;;20.67;73.98
3294;BME280;1659;51.470;6.770;2023-04-29T12:06:52;101738.34;;;20.83;73.26
3294;BME280;1659;51.470;6.770;2023-04-29T12:09:19;101735.53;;;20.86;73.10
3294;BME280;1659;51.470;6.770;2023-04-29T12:11:45;101736.63;;;20.62;72.59
3294;BME280;1659;51.470;6.770;2023-04-29T12:14:12;101742.88;;;20.21;72.81
3294;BME280;1659;51.470;6.770;2023-04-29T12:16:40;101746.06;;;19.88;73.45
3294;BME280;1659;51.470;6.770;2023-04-29T12:19:07;101745.69;;;19.53;73.75
3294;BME280;1659;51.470;6.770;2023-04-29T12:21:34;101753.47;;;19.15;74.23
3294;BME280;1659;51.470;6.770;2023-04-29T12:24:02;101751.19;;;18.81;74.59
3294;BME280;1659;51.470;6.770;2023-04-29T12:26:29;101748.75;;;18.49;74.93
3294;BME280;1659;51.470;6.770;2023-04-29T12:28:57;101758.09;;;18.13;75.56
3294;BME280;1659;51.470;6.770;2023-04-29T12:31:31;101761.13;;;17.73;75.55
3294;BME280;1659;51.470;6.770;2023-04-29T12:33:59;101759.69;;;17.35;76.21
3294;BME280;1659;51.470;6.770;2023-04-29T12:36:28;101763.97;;;17.12;76.61
3294;BME280;1659;51.470;6.770;2023-04-29T12:38:55;101768.81;;;16.98;76.67
3294;BME280;1659;51.470;6.770;2023-04-29T12:41:37;101772.69;;;16.88;76.25
3294;BME280;1659;51.470;6.770;2023-04-29T12:44:05;101769.38;;;16.78;75.41
3294;BME280;1659;51.470;6.770;2023-04-29T12:46:35;101767.63;;;16.77;76.06
3294;BME280;1659;51.470;6.770;2023-04-29T12:49:04;101773.94;;;16.74;76.22
3294;BME280;1659;51.470;6.770;2023-04-29T12:51:31;101768.38;;;16.82;75.91
3294;BME280;1659;51.470;6.770;2023-04-29T12:53:58;101767.50;;;16.82;75.43
3294;BME280;1659;51.470;6.770;2023-04-29T12:56:25;101772.09;;;16.76;75.37
3294;BME280;1659;51.470;6.770;2023-04-29T12:58:52;101767.53;;;16.80;75.27
3294;BME280;1659;51.470;6.770;2023-04-29T13:01:19;101767.69;;;16.74;75.07
3294;BME280;1659;51.470;6.770;2023-04-29T13:03:45;101769.66;;;16.69;75.04
3294;BME280;1659;51.470;6.770;2023-04-29T13:06:14;101772.38;;;16.67;74.81
3294;BME280;1659;51.470;6.770;2023-04-29T13:08:42;101768.75;;;16.68;74.63
3294;BME280;1659;51.470;6.770;2023-04-29T13:11:08;101768.78;;;16.67;74.63